Time,TemperatureF,DewpointF,PressureIn,WindDirection,WindDirectionDegrees,WindSpeedMPH,WindSpeedGustMPH,Humidity,HourlyPrecipIn,Conditions,Clouds,dailyrainin,SoftwareType,DateUTC
2013-04-03 00:10:00,35.6,25.4,30.27,ENE,74,0.0,1.0,66,0.00,,---,0.00,VWS V14.01,2013-04-03 05:10:00,
2013-04-03 00:25:00,35.3,25.5,30.28,ENE,74,0.0,1.0,67,0.00,,---,0.00,VWS V14.01,2013-04-03 05:25:00,
2013-04-03 00:40:00,35.0,25.9,30.28,ENE,74,0.0,1.0,69,0.00,,---,0.00,VWS V14.01,2013-04-03 05:40:00,
2013-04-03 00:55:00,34.5,25.7,30.28,ENE,74,1.0,1.0,70,0.00,,---,0.00,VWS V14.01,2013-04-03 05:55:00,
2013-04-03 01:10:00,33.9,25.8,30.29,ENE,74,0.0,1.0,72,0.00,,---,0.00,VWS V14.01,2013-04-03 06:10:00,
2013-04-03 01:25:00,32.8,24.8,30.29,NNE,28,4.0,7.0,72,0.00,,---,0.00,VWS V14.01,2013-04-03 06:25:00,
2013-04-03 01:40:00,32.6,24.6,30.30,NE,46,6.0,10.0,72,0.00,,---,0.00,VWS V14.01,2013-04-03 06:40:00,
2013-04-03 01:55:00,33.7,25.3,30.30,ENE,59,5.0,11.0,71,0.00,,---,0.00,VWS V14.01,2013-04-03 06:55:00,
2013-04-03 02:10:00,34.7,25.2,30.30,NE,55,4.0,13.0,68,0.00,,---,0.00,VWS V14.01,2013-04-03 07:10:00,
2013-04-03 02:25:00,35.4,25.2,30.30,ENE,62,3.0,12.0,66,0.00,,---,0.00,VWS V14.01,2013-04-03 07:25:00,
2013-04-03 02:40:00,35.3,25.1,30.30,ENE,57,2.0,11.0,66,0.00,,---,0.00,VWS V14.01,2013-04-03 07:40:00,
2013-04-03 02:55:00,34.9,25.4,30.30,ENE,58,6.0,8.0,68,0.00,,---,0.00,VWS V14.01,2013-04-03 07:55:00,
2013-04-03 03:10:00,34.7,24.9,30.30,ENE,66,5.0,11.0,67,0.00,,---,0.00,VWS V14.01,2013-04-03 08:10:00,
2013-04-03 03:25:00,34.4,25.0,30.31,East,90,7.0,11.0,68,0.00,,---,0.00,VWS V14.01,2013-04-03 08:25:00,
2013-04-03 03:40:00,34.3,25.2,30.31,ENE,57,3.0,11.0,69,0.00,,---,0.00,VWS V14.01,2013-04-03 08:40:00,
2013-04-03 03:55:00,33.9,25.2,30.31,ENE,59,2.0,12.0,70,0.00,,---,0.00,VWS V14.01,2013-04-03 08:55:00,
2013-04-03 04:10:00,33.7,25.0,30.31,ENE,60,3.0,8.0,70,0.00,,---,0.00,VWS V14.01,2013-04-03 09:10:00,
2013-04-03 04:25:00,33.4,25.0,30.31,ENE,78,5.0,8.0,71,0.00,,---,0.00,VWS V14.01,2013-04-03 09:25:00,
2013-04-03 04:40:00,33.2,24.8,30.31,ENE,69,2.0,6.0,71,0.00,,---,0.00,VWS V14.01,2013-04-03 09:40:00,
2013-04-03 04:55:00,33.0,24.6,30.32,East,82,2.0,7.0,71,0.00,,---,0.00,VWS V14.01,2013-04-03 09:55:00,
2013-04-03 05:10:00,32.6,24.6,30.32,ENE,73,0.0,5.0,72,0.00,,---,0.00,VWS V14.01,2013-04-03 10:10:00,
2013-04-03 05:25:00,32.4,24.4,30.33,ENE,74,3.0,4.0,72,0.00,,---,0.00,VWS V14.01,2013-04-03 10:25:00,
2013-04-03 05:40:00,32.2,24.5,30.33,ENE,69,2.0,5.0,73,0.00,,---,0.00,VWS V14.01,2013-04-03 10:40:00,
2013-04-03 05:55:00,32.1,24.4,30.33,ENE,69,2.0,4.0,73,0.00,,---,0.00,VWS V14.01,2013-04-03 10:55:00,
2013-04-03 06:10:00,32.0,24.3,30.33,ENE,69,1.0,4.0,73,0.00,,---,0.00,VWS V14.01,2013-04-03 11:10:00,
2013-04-03 06:25:00,32.3,24.6,30.33,ENE,60,3.0,7.0,73,0.00,,---,0.00,VWS V14.01,2013-04-03 11:25:00,
2013-04-03 06:40:00,31.7,24.4,30.33,NE,49,4.0,7.0,74,0.00,,---,0.00,VWS V14.01,2013-04-03 11:40:00,
2013-04-03 06:55:00,31.4,24.4,30.34,ENE,61,2.0,8.0,75,0.00,,---,0.00,VWS V14.01,2013-04-03 11:55:00,
2013-04-03 07:10:00,31.8,24.5,30.34,ENE,60,6.0,11.0,74,0.00,,---,0.00,VWS V14.01,2013-04-03 12:10:00,
2013-04-03 07:25:00,31.9,24.6,30.35,ENE,71,4.0,8.0,74,0.00,,---,0.00,VWS V14.01,2013-04-03 12:25:00,
2013-04-03 07:40:00,32.2,24.5,30.36,East,90,7.0,8.0,73,0.00,,---,0.00,VWS V14.01,2013-04-03 12:40:00,
2013-04-03 07:55:00,32.5,24.8,30.36,ENE,78,1.0,7.0,73,0.00,,---,0.00,VWS V14.01,2013-04-03 12:55:00,
2013-04-03 08:10:00,33.1,25.1,30.36,East,96,1.0,7.0,72,0.00,,---,0.00,VWS V14.01,2013-04-03 13:10:00,
2013-04-03 08:25:00,33.9,25.2,30.36,East,80,2.0,8.0,70,0.00,,---,0.00,VWS V14.01,2013-04-03 13:25:00,
2013-04-03 08:40:00,34.7,25.6,30.36,NNE,19,6.0,8.0,69,0.00,,---,0.00,VWS V14.01,2013-04-03 13:40:00,
2013-04-03 08:55:00,35.5,25.6,30.36,SE,127,2.0,9.0,67,0.00,,---,0.00,VWS V14.01,2013-04-03 13:55:00,
2013-04-03 09:10:00,36.8,25.8,30.35,ESE,122,4.0,11.0,64,0.00,,---,0.00,VWS V14.01,2013-04-03 14:10:00,
2013-04-03 09:25:00,38.0,25.8,30.35,East,98,4.0,12.0,61,0.00,,---,0.00,VWS V14.01,2013-04-03 14:25:00,
2013-04-03 09:40:00,39.3,25.8,30.35,ENE,77,6.0,11.0,58,0.00,,---,0.00,VWS V14.01,2013-04-03 14:40:00,
2013-04-03 09:55:00,40.8,25.0,30.36,East,88,5.0,15.0,53,0.00,,---,0.00,VWS V14.01,2013-04-03 14:55:00,
2013-04-03 10:10:00,41.8,25.0,30.36,ENE,69,2.0,13.0,51,0.00,,---,0.00,VWS V14.01,2013-04-03 15:10:00,
2013-04-03 10:25:00,42.2,25.9,30.35,ENE,66,1.0,11.0,52,0.00,,---,0.00,VWS V14.01,2013-04-03 15:25:00,
2013-04-03 10:40:00,43.1,25.3,30.35,SE,126,7.0,10.0,49,0.00,,---,0.00,VWS V14.01,2013-04-03 15:40:00,
2013-04-03 10:55:00,43.9,25.5,30.35,ESE,113,4.0,13.0,48,0.00,,---,0.00,VWS V14.01,2013-04-03 15:55:00,
2013-04-03 11:25:00,45.3,25.2,30.35,SE,136,4.0,12.0,45,0.00,,---,0.00,VWS V14.01,2013-04-03 16:25:00,
2013-04-03 11:40:00,45.9,26.3,30.35,NE,44,12.0,12.0,46,0.00,,---,0.00,VWS V14.01,2013-04-03 16:40:00,
2013-04-03 11:55:00,46.9,26.7,30.34,ENE,69,1.0,12.0,45,0.00,,---,0.00,VWS V14.01,2013-04-03 16:55:00,
2013-04-03 12:10:00,47.1,26.3,30.34,ENE,69,3.0,10.0,44,0.00,,---,0.00,VWS V14.01,2013-04-03 17:10:00,
2013-04-03 12:25:00,47.3,26.0,30.33,ESE,123,5.0,9.0,43,0.00,,---,0.00,VWS V14.01,2013-04-03 17:25:00,
2013-04-03 12:40:00,47.7,26.3,30.33,ENE,77,5.0,12.0,43,0.00,,---,0.00,VWS V14.01,2013-04-03 17:40:00,
2013-04-03 12:55:00,48.7,26.6,30.32,East,98,5.0,12.0,42,0.00,,---,0.00,VWS V14.01,2013-04-03 17:55:00,
2013-04-03 13:10:00,48.4,25.8,30.32,ENE,63,2.0,13.0,41,0.00,,---,0.00,VWS V14.01,2013-04-03 18:10:00,
2013-04-03 13:25:00,48.8,26.7,30.32,ENE,57,2.0,13.0,42,0.00,,---,0.00,VWS V14.01,2013-04-03 18:25:00,
2013-04-03 13:40:00,48.9,26.8,30.31,ENE,76,4.0,13.0,42,0.00,,---,0.00,VWS V14.01,2013-04-03 18:40:00,
2013-04-03 13:55:00,49.8,27.6,30.31,ENE,60,7.0,13.0,42,0.00,,---,0.00,VWS V14.01,2013-04-03 18:55:00,
2013-04-03 14:10:00,49.4,27.3,30.31,NNE,29,9.0,14.0,42,0.00,,---,0.00,VWS V14.01,2013-04-03 19:10:00,
2013-04-03 14:25:00,49.9,28.3,30.30,East,93,4.0,12.0,43,0.00,,---,0.00,VWS V14.01,2013-04-03 19:25:00,
2013-04-03 14:40:00,50.5,27.7,30.29,ESE,122,4.0,13.0,41,0.00,,---,0.00,VWS V14.01,2013-04-03 19:40:00,
2013-04-03 14:55:00,49.5,26.8,30.29,ESE,112,2.0,12.0,41,0.00,,---,0.00,VWS V14.01,2013-04-03 19:55:00,
2013-04-03 15:10:00,49.8,27.1,30.29,East,82,3.0,14.0,41,0.00,,---,0.00,VWS V14.01,2013-04-03 20:10:00,
2013-04-03 15:25:00,49.8,27.6,30.28,ESE,122,4.0,12.0,42,0.00,,---,0.00,VWS V14.01,2013-04-03 20:25:00,
2013-04-03 15:40:00,50.0,28.4,30.27,ENE,75,5.0,13.0,43,0.00,,---,0.00,VWS V14.01,2013-04-03 20:40:00,
2013-04-03 15:55:00,50.2,28.0,30.27,NE,43,1.0,11.0,42,0.00,,---,0.00,VWS V14.01,2013-04-03 20:55:00,
2013-04-03 16:10:00,50.5,27.7,30.26,NE,53,5.0,10.0,41,0.00,,---,0.00,VWS V14.01,2013-04-03 21:10:00,
2013-04-03 16:25:00,50.1,27.3,30.25,ENE,67,4.0,12.0,41,0.00,,---,0.00,VWS V14.01,2013-04-03 21:25:00,
2013-04-03 16:40:00,49.4,27.3,30.25,East,80,2.0,14.0,42,0.00,,---,0.00,VWS V14.01,2013-04-03 21:40:00,
2013-04-03 16:55:00,49.5,28.0,30.25,ENE,77,3.0,13.0,43,0.00,,---,0.00,VWS V14.01,2013-04-03 21:55:00,
2013-04-03 17:10:00,49.4,27.9,30.25,ENE,65,1.0,10.0,43,0.00,,---,0.00,VWS V14.01,2013-04-03 22:10:00,
2013-04-03 17:25:00,49.1,27.6,30.25,NE,56,4.0,11.0,43,0.00,,---,0.00,VWS V14.01,2013-04-03 22:25:00,
2013-04-03 17:40:00,48.8,26.7,30.25,ENE,68,3.0,12.0,42,0.00,,---,0.00,VWS V14.01,2013-04-03 22:40:00,
2013-04-03 17:55:00,48.7,26.6,30.24,East,80,3.0,12.0,42,0.00,,---,0.00,VWS V14.01,2013-04-03 22:55:00,
2013-04-03 18:10:00,48.4,27.0,30.24,ENE,59,5.0,11.0,43,0.00,,---,0.00,VWS V14.01,2013-04-03 23:10:00,
2013-04-03 18:25:00,48.3,27.4,30.23,NE,43,8.0,11.0,44,0.00,,---,0.00,VWS V14.01,2013-04-03 23:25:00,
2013-04-03 18:40:00,48.0,27.1,30.23,NE,50,5.0,12.0,44,0.00,,---,0.00,VWS V14.01,2013-04-03 23:40:00,
2013-04-03 18:55:00,47.7,27.4,30.23,NE,45,10.0,11.0,45,0.00,,---,0.00,VWS V14.01,2013-04-03 23:55:00,
2013-04-03 19:10:00,47.5,27.2,30.23,NE,47,4.0,10.0,45,0.00,,---,0.00,VWS V14.01,2013-04-04 00:10:00,
2013-04-03 19:25:00,47.2,27.0,30.23,NE,44,2.0,7.0,45,0.00,,---,0.00,VWS V14.01,2013-04-04 00:25:00,
2013-04-03 19:40:00,46.8,27.1,30.23,NE,48,2.0,6.0,46,0.00,,---,0.00,VWS V14.01,2013-04-04 00:40:00,
2013-04-03 19:55:00,46.3,27.2,30.23,NE,48,4.0,5.0,47,0.00,,---,0.00,VWS V14.01,2013-04-04 00:55:00,
2013-04-03 20:10:00,45.8,27.2,30.22,NE,48,1.0,4.0,48,0.00,,---,0.00,VWS V14.01,2013-04-04 01:10:00,
2013-04-03 20:25:00,45.6,27.1,30.22,NE,48,2.0,4.0,48,0.00,,---,0.00,VWS V14.01,2013-04-04 01:25:00,
2013-04-03 20:40:00,45.2,27.2,30.23,NE,48,1.0,3.0,49,0.00,,---,0.00,VWS V14.01,2013-04-04 01:40:00,
2013-04-03 20:55:00,44.9,26.4,30.23,ESE,114,0.0,5.0,48,0.00,,---,0.00,VWS V14.01,2013-04-04 01:55:00,
2013-04-03 21:10:00,44.5,26.0,30.23,ESE,115,0.0,4.0,48,0.00,,---,0.00,VWS V14.01,2013-04-04 02:10:00,
2013-04-03 21:25:00,43.9,24.5,30.24,ESE,115,1.0,2.0,46,0.00,,---,0.00,VWS V14.01,2013-04-04 02:25:00,
2013-04-03 21:40:00,43.3,23.9,30.24,ESE,115,0.0,1.0,46,0.00,,---,0.00,VWS V14.01,2013-04-04 02:40:00,
2013-04-03 21:55:00,42.6,23.3,30.25,ESE,115,0.0,1.0,46,0.00,,---,0.00,VWS V14.01,2013-04-04 02:55:00,
2013-04-03 22:10:00,42.0,22.7,30.25,ESE,115,0.0,0.0,46,0.00,,---,0.00,VWS V14.01,2013-04-04 03:10:00,
2013-04-03 22:25:00,41.4,22.7,30.25,ESE,115,0.0,0.0,47,0.00,,---,0.00,VWS V14.01,2013-04-04 03:25:00,
2013-04-03 22:40:00,40.9,23.2,30.24,ESE,115,0.0,0.0,49,0.00,,---,0.00,VWS V14.01,2013-04-04 03:40:00,
2013-04-03 22:55:00,40.2,24.0,30.24,ESE,115,0.0,0.0,52,0.00,,---,0.00,VWS V14.01,2013-04-04 03:55:00,
2013-04-03 23:10:00,39.6,23.9,30.24,ESE,115,0.0,0.0,53,0.00,,---,0.00,VWS V14.01,2013-04-04 04:10:00,
2013-04-03 23:25:00,39.2,23.1,30.24,ESE,115,0.0,0.0,52,0.00,,---,0.00,VWS V14.01,2013-04-04 04:25:00,
2013-04-03 23:40:00,39.0,22.9,30.23,ESE,115,0.0,0.0,52,0.00,,---,0.00,VWS V14.01,2013-04-04 04:40:00,
2013-04-03 23:55:00,38.6,22.5,30.24,ESE,115,0.0,0.0,52,0.00,,---,0.00,VWS V14.01,2013-04-04 04:55:00,